Terminal Aerodrome Forecast
Issued by NWS El Paso, TX

Home | Current Version | Previous Version | Text Only | Print | Product List | Glossary On
Versions: 1 2 3 4 5 6 7 8 9 10 11 12 13 14
000
FTUS44 KEPZ 291120
TAFELP
TAF
KELP 291120Z 2912/3012 12005KT P6SM SCT060 BKN100 OVC140
     FM291800 14007KT P6SM SCT100 SCT150
     FM292200 12010KT P6SM VCTS SCT060CB BKN120=

USA.gov is the U.S. government's official web portal to all federal, state and local government web resources and services.